Porto Di Livorno — IFPU2 — position and weather

sailwx.info

Track history (hours):
 
Tides and Currents Weather Stations Pressure Air Temp Water Temp Dewpoint Dewpoint Depression Visibility Wind Speed Wind Dir Waves Ship Positions

Porto Di Livorno

Last reported at 2017-Sep-21 16:10 UTC. Time now 2017-Sep-22 08:26 UTC.
Position N 43°34' E 010°18'.

Length 24 m; draft 6.1 m.

Type: Tug. MMSI: 247194299.

Date/timePositionNaut miles runAvg speedWind from/ knotsBaromVisibWave heightAir tempDewpointWater temp
2017-Sep-21 16:10N 43°34' E 010°18'0 0.0
2017-Sep-21 16:00N 43°34' E 010°18'0 0.3
2017-Sep-21 15:30N 43°34' E 010°18'1 1.5
2017-Sep-21 15:00N 43°34' E 010°18'1 1.5
2017-Sep-21 14:30N 43°34' E 010°18'0 0.0
2017-Sep-21 14:00N 43°34' E 010°18'0 0.0
2017-Sep-21 13:30N 43°34' E 010°18'0 0.0
2017-Sep-21 13:00N 43°34' E 010°18'0 0.0
2017-Sep-21 12:30N 43°34' E 010°18'1 2.6
2017-Sep-21 12:00N 43°35' E 010°19'1 2.5
2017-Sep-21 11:31N 43°34' E 010°18'0 0.1
2017-Sep-21 11:00N 43°34' E 010°18'0 0.0
2017-Sep-21 10:30N 43°34' E 010°18'0 0.4
2017-Sep-21 10:00N 43°34' E 010°18'1 1.1
2017-Sep-21 09:31N 43°34' E 010°18'2 4.3
2017-Sep-21 09:01N 43°32' E 010°17'0 0.2
2017-Sep-21 08:30N 43°32' E 010°18'3 5.9
2017-Sep-21 08:00N 43°35' E 010°19'0 0.7
2017-Sep-21 07:31N 43°35' E 010°19'2 3.0
2017-Sep-21 07:01N 43°34' E 010°18'1 2.3
2017-Sep-21 06:30N 43°32' E 010°17'3 5.7
2017-Sep-21 06:01N 43°35' E 010°19'0 0.3
2017-Sep-21 05:30N 43°35' E 010°19'1 2.4
2017-Sep-21 05:00N 43°34' E 010°18'2 3.4
2017-Sep-21 04:31N 43°32' E 010°17'1 2.7
2017-Sep-21 04:01N 43°34' E 010°18'0 0.0
2017-Sep-20 13:24N 43°34' E 010°18'0 0.0
2017-Sep-20 13:00N 43°34' E 010°18'1 1.6
2017-Sep-20 12:29N 43°33' E 010°18'1 1.8
2017-Sep-20 12:00N 43°34' E 010°18'0 0.0
2017-Sep-19 16:32N 43°34' E 010°18'0 0.0
2017-Sep-19 16:30N 43°34' E 010°18'1 2.6
2017-Sep-19 16:01N 43°35' E 010°19'1 2.5
2017-Sep-19 15:30N 43°34' E 010°18'0 0.0
2017-Sep-19 15:00N 43°34' E 010°18'0 0.0
2017-Sep-19 14:30N 43°34' E 010°18'0 0.0
2017-Sep-19 14:00N 43°34' E 010°18'0 0.0
2017-Sep-19 13:30N 43°34' E 010°18'0 0.0
2017-Sep-19 13:00N 43°34' E 010°18'0 0.0
2017-Sep-19 12:30N 43°34' E 010°18'0 0.0
2017-Sep-19 12:00N 43°34' E 010°18'0 0.0
2017-Sep-19 11:30N 43°34' E 010°18'0 0.0
2017-Sep-19 11:00N 43°34' E 010°18'0 0.0
2017-Sep-19 10:30N 43°34' E 010°18'0 0.0
2017-Sep-19 10:00N 43°34' E 010°18'0 0.0
2017-Sep-19 09:30N 43°34' E 010°18'0 0.0
2017-Sep-19 09:00N 43°34' E 010°18'0 0.0
2017-Sep-19 08:30N 43°34' E 010°18'1 2.4
2017-Sep-19 08:00N 43°35' E 010°19'0 0.9
2017-Sep-19 07:31N 43°35' E 010°19'1 2.0
2017-Sep-19 07:01N 43°34' E 010°19'1 2.7
2017-Sep-19 06:31N 43°33' E 010°17'1 1.4
2017-Sep-19 06:00N 43°34' E 010°18'0 0.0
2017-Sep-19 05:30N 43°34' E 010°18'0 0.0
2017-Sep-19 05:00N 43°34' E 010°18'0 0.0
2017-Sep-19 04:30N 43°34' E 010°18'0 0.0
2017-Sep-19 04:00N 43°34' E 010°18'0 0.0
2017-Sep-18 15:54N 43°34' E 010°18'0 0.0
2017-Sep-18 15:30N 43°34' E 010°18'0 0.0
2017-Sep-18 15:00N 43°34' E 010°18'0 0.0
2017-Sep-18 14:30N 43°34' E 010°18'0 0.0
2017-Sep-18 14:00N 43°34' E 010°18'0 0.0
2017-Sep-18 13:30N 43°34' E 010°18'0 0.0
2017-Sep-18 13:00N 43°34' E 010°18'0 0.0
2017-Sep-18 12:30N 43°34' E 010°18'0 0.0
2017-Sep-18 12:00N 43°34' E 010°18'0 0.0
2017-Sep-18 11:31N 43°34' E 010°18'1 2.8
2017-Sep-18 11:01N 43°35' E 010°19'1 2.7
2017-Sep-18 10:30N 43°34' E 010°18'0 0.0
2017-Sep-18 10:00N 43°34' E 010°18'0 0.0
2017-Sep-18 09:30N 43°34' E 010°18'0 0.0
2017-Sep-18 09:00N 43°34' E 010°18'0 0.0
2017-Sep-18 08:30N 43°34' E 010°18'0 0.0
2017-Sep-18 08:00N 43°34' E 010°18'0 0.0
2017-Sep-18 07:30N 43°34' E 010°18'0 0.0
2017-Sep-18 07:00N 43°34' E 010°18'0 0.0
2017-Sep-18 06:30N 43°34' E 010°18'1 1.6
2017-Sep-18 06:00N 43°34' E 010°19'1 1.2
2017-Sep-18 05:30N 43°34' E 010°18'0 0.5
2017-Sep-18 05:00N 43°34' E 010°18'0 0.0
2017-Sep-18 04:30N 43°34' E 010°18'  
2017-Sep-15 18:57N 43°34' E 010°18'0 0.0
2017-Sep-15 18:30N 43°34' E 010°18'0 0.0
2017-Sep-15 18:00N 43°34' E 010°18'0 0.0
2017-Sep-15 17:30N 43°34' E 010°18'0 0.0
2017-Sep-15 17:00N 43°34' E 010°18'0 0.5
2017-Sep-15 16:30N 43°34' E 010°18'0 0.7
2017-Sep-15 16:00N 43°34' E 010°18'2 5.0
2017-Sep-15 15:30N 43°32' E 010°17'0 0.1
2017-Sep-15 15:01N 43°32' E 010°16'2 4.0
2017-Sep-15 14:30N 43°34' E 010°18'0 0.0
2017-Sep-15 14:00N 43°34' E 010°18'0 0.9
2017-Sep-15 13:30N 43°33' E 010°18'1 2.3
2017-Sep-15 13:00N 43°34' E 010°18'1 1.6
2017-Sep-15 12:30N 43°34' E 010°18'0 0.0
2017-Sep-15 12:00N 43°34' E 010°18'0 0.0
2017-Sep-15 11:30N 43°34' E 010°18'0 0.0
2017-Sep-15 11:00N 43°34' E 010°18'0 0.0
2017-Sep-15 09:58N 43°34' E 010°18'0 0.0
2017-Sep-15 09:30N 43°34' E 010°18'0 0.0
2017-Sep-15 09:00N 43°34' E 010°18'0 0.1
2017-Sep-15 08:30N 43°34' E 010°18'1 2.2
2017-Sep-15 08:01N 43°33' E 010°17'1 1.4
2017-Sep-15 07:31N 43°33' E 010°18'0 0.3
2017-Sep-15 07:00N 43°34' E 010°18'0 0.0
2017-Sep-15 06:30N 43°34' E 010°18'0 0.8
2017-Sep-15 06:00N 43°34' E 010°18'0 0.0
2017-Sep-15 05:30N 43°34' E 010°18'0 0.0
2017-Sep-15 05:00N 43°34' E 010°18'0 0.0
2017-Sep-15 04:30N 43°34' E 010°18'0 0.0
2017-Sep-15 04:01N 43°34' E 010°18'0 0.0
2017-Sep-14 15:29N 43°34' E 010°18'0 0.0
2017-Sep-14 14:58N 43°34' E 010°18'0 0.0
2017-Sep-14 14:31N 43°34' E 010°18'0 0.0
2017-Sep-14 14:01N 43°34' E 010°18'0 0.0
2017-Sep-14 13:30N 43°34' E 010°18'0 0.0
2017-Sep-14 11:04N 43°34' E 010°18'0 0.1
2017-Sep-14 11:01N 43°34' E 010°18'0 0.0
2017-Sep-14 10:31N 43°34' E 010°18'0 0.0
2017-Sep-14 10:00N 43°34' E 010°18'0 0.0
2017-Sep-14 09:31N 43°34' E 010°18'0 0.0
2017-Sep-14 09:01N 43°34' E 010°18'0 0.0
2017-Sep-14 08:31N 43°34' E 010°18'0 0.0
2017-Sep-14 08:01N 43°34' E 010°18'0 0.0
2017-Sep-14 07:31N 43°34' E 010°18'0 0.0
2017-Sep-14 07:01N 43°34' E 010°18'0 0.0
2017-Sep-14 06:31N 43°34' E 010°18'0 0.0
2017-Sep-14 06:01N 43°34' E 010°18'0 0.0
2017-Sep-14 05:30N 43°34' E 010°18'0 0.0
2017-Sep-13 13:46N 43°34' E 010°18'0 0.0
2017-Sep-13 13:30N 43°34' E 010°18'0 0.0
2017-Sep-13 13:00N 43°34' E 010°18'0 0.0
2017-Sep-13 12:30N 43°34' E 010°18'0 0.0
2017-Sep-13 12:00N 43°34' E 010°18'0 0.0
2017-Sep-13 11:30N 43°34' E 010°18'0 0.0
2017-Sep-13 10:56N 43°34' E 010°18'0 0.0
2017-Sep-13 10:30N 43°34' E 010°18'0 0.0
2017-Sep-13 10:00N 43°34' E 010°18'0 0.0
2017-Sep-13 09:30N 43°34' E 010°18'1 2.2
2017-Sep-13 09:00N 43°35' E 010°18'1 1.9
2017-Sep-13 08:30N 43°34' E 010°18'1 1.5
2017-Sep-13 08:00N 43°33' E 010°17'1 1.3
2017-Sep-13 07:30N 43°34' E 010°18'0 0.0
2017-Sep-13 07:00N 43°34' E 010°18'0 0.5
2017-Sep-13 06:30N 43°34' E 010°18'1 1.2
2017-Sep-13 06:00N 43°34' E 010°18'1 1.7
2017-Sep-13 05:30N 43°34' E 010°18'0 0.0
2017-Sep-12 15:51N 43°34' E 010°18'1 2.3
2017-Sep-12 15:30N 43°34' E 010°19'2 3.7
2017-Sep-12 15:00N 43°33' E 010°17'1 2.1
2017-Sep-12 14:30N 43°34' E 010°18'0 0.0
2017-Sep-12 14:00N 43°34' E 010°18'0 0.0
2017-Sep-12 13:30N 43°34' E 010°18'0 0.0
2017-Sep-12 13:00N 43°34' E 010°18'0 0.0
2017-Sep-12 12:30N 43°34' E 010°18'0 0.0
2017-Sep-12 12:00N 43°34' E 010°18'0 0.0
2017-Sep-12 11:30N 43°34' E 010°18'1 1.5
2017-Sep-12 11:00N 43°34' E 010°19'1 1.0
2017-Sep-12 10:30N 43°35' E 010°19'1 2.5
2017-Sep-12 10:00N 43°34' E 010°18'0 0.0
2017-Sep-12 09:30N 43°34' E 010°18'0 0.7
2017-Sep-12 09:00N 43°34' E 010°18'1 2.8
2017-Sep-12 08:30N 43°35' E 010°18'0 0.0
2017-Sep-12 08:00N 43°35' E 010°18'0 0.0
2017-Sep-12 07:30N 43°35' E 010°18'0 0.0
2017-Sep-12 07:00N 43°35' E 010°18'0 0.0
2017-Sep-12 06:30N 43°35' E 010°18'0 0.0
2017-Sep-12 06:00N 43°35' E 010°18'0 0.0
2017-Sep-12 05:30N 43°35' E 010°18'0 0.0
2017-Sep-12 05:00N 43°35' E 010°18'1 2.9
2017-Sep-12 04:31N 43°33' E 010°18'0 0.5
2017-Sep-12 03:39N 43°34' E 010°18'0 0.0
2017-Sep-12 03:30N 43°34' E 010°18'0 0.0
2017-Sep-12 03:00N 43°34' E 010°18'0 0.0
2017-Sep-12 02:30N 43°34' E 010°18'0 0.0
2017-Sep-12 02:00N 43°34' E 010°18'0 0.0
2017-Sep-12 01:30N 43°34' E 010°18'0 0.0
2017-Sep-12 01:00N 43°34' E 010°18'0 0.0
2017-Sep-12 00:30N 43°34' E 010°18'0 0.0
2017-Sep-12 00:00N 43°34' E 010°18'0 0.0
2017-Sep-11 23:30N 43°34' E 010°18'0 0.0
2017-Sep-11 23:00N 43°34' E 010°18'0 0.0
2017-Sep-11 22:30N 43°34' E 010°18'0 0.0
2017-Sep-11 22:00N 43°34' E 010°18'0 0.0
2017-Sep-11 21:30N 43°34' E 010°18'0 0.0
2017-Sep-11 21:00N 43°34' E 010°18'0 0.0
2017-Sep-11 20:30N 43°34' E 010°18'0 0.0
2017-Sep-11 20:00N 43°34' E 010°18'0 0.0
2017-Sep-11 19:30N 43°34' E 010°18'0 0.0
2017-Sep-11 18:45N 43°34' E 010°18'0 0.0
2017-Sep-11 18:31N 43°34' E 010°18'0 0.0
2017-Sep-11 18:00N 43°34' E 010°18'0 0.0
2017-Sep-11 17:31N 43°34' E 010°18'1 1.6
2017-Sep-11 17:00N 43°33' E 010°17'0 0.8
2017-Sep-11 16:31N 43°33' E 010°18'  
Track history (hours):
 
Tides and Currents Weather Stations Pressure Air Temp Water Temp Dewpoint Dewpoint Depression Visibility Wind Speed Wind Dir Waves Ship Positions

Porto Di Livorno

Last reported at 2017-Sep-21 16:10 UTC. Time now 2017-Sep-22 08:26 UTC.
Position N 43°34' E 010°18'.

Length 24 m; draft 6.1 m.

Type: Tug. MMSI: 247194299.

Date/timePositionNaut miles runAvg speedWind from/ knotsBaromVisibWave heightAir tempDewpointWater temp
2017-Sep-21 16:10N 43°34' E 010°18'0 0.0
2017-Sep-21 16:00N 43°34' E 010°18'0 0.3
2017-Sep-21 15:30N 43°34' E 010°18'1 1.5
2017-Sep-21 15:00N 43°34' E 010°18'1 1.5
2017-Sep-21 14:30N 43°34' E 010°18'0 0.0
2017-Sep-21 14:00N 43°34' E 010°18'0 0.0
2017-Sep-21 13:30N 43°34' E 010°18'0 0.0
2017-Sep-21 13:00N 43°34' E 010°18'0 0.0
2017-Sep-21 12:30N 43°34' E 010°18'1 2.6
2017-Sep-21 12:00N 43°35' E 010°19'1 2.5
2017-Sep-21 11:31N 43°34' E 010°18'0 0.1
2017-Sep-21 11:00N 43°34' E 010°18'0 0.0
2017-Sep-21 10:30N 43°34' E 010°18'0 0.4
2017-Sep-21 10:00N 43°34' E 010°18'1 1.1
2017-Sep-21 09:31N 43°34' E 010°18'2 4.3
2017-Sep-21 09:01N 43°32' E 010°17'0 0.2
2017-Sep-21 08:30N 43°32' E 010°18'3 5.9
2017-Sep-21 08:00N 43°35' E 010°19'0 0.7
2017-Sep-21 07:31N 43°35' E 010°19'2 3.0
2017-Sep-21 07:01N 43°34' E 010°18'1 2.3
2017-Sep-21 06:30N 43°32' E 010°17'3 5.7
2017-Sep-21 06:01N 43°35' E 010°19'0 0.3
2017-Sep-21 05:30N 43°35' E 010°19'1 2.4
2017-Sep-21 05:00N 43°34' E 010°18'2 3.4
2017-Sep-21 04:31N 43°32' E 010°17'1 2.7
2017-Sep-21 04:01N 43°34' E 010°18'0 0.0
2017-Sep-20 13:24N 43°34' E 010°18'0 0.0
2017-Sep-20 13:00N 43°34' E 010°18'1 1.6
2017-Sep-20 12:29N 43°33' E 010°18'1 1.8
2017-Sep-20 12:00N 43°34' E 010°18'0 0.0
2017-Sep-19 16:32N 43°34' E 010°18'0 0.0
2017-Sep-19 16:30N 43°34' E 010°18'1 2.6
2017-Sep-19 16:01N 43°35' E 010°19'1 2.5
2017-Sep-19 15:30N 43°34' E 010°18'0 0.0
2017-Sep-19 15:00N 43°34' E 010°18'0 0.0
2017-Sep-19 14:30N 43°34' E 010°18'0 0.0
2017-Sep-19 14:00N 43°34' E 010°18'0 0.0
2017-Sep-19 13:30N 43°34' E 010°18'0 0.0
2017-Sep-19 13:00N 43°34' E 010°18'0 0.0
2017-Sep-19 12:30N 43°34' E 010°18'0 0.0
2017-Sep-19 12:00N 43°34' E 010°18'0 0.0
2017-Sep-19 11:30N 43°34' E 010°18'0 0.0
2017-Sep-19 11:00N 43°34' E 010°18'0 0.0
2017-Sep-19 10:30N 43°34' E 010°18'0 0.0
2017-Sep-19 10:00N 43°34' E 010°18'0 0.0
2017-Sep-19 09:30N 43°34' E 010°18'0 0.0
2017-Sep-19 09:00N 43°34' E 010°18'0 0.0
2017-Sep-19 08:30N 43°34' E 010°18'1 2.4
2017-Sep-19 08:00N 43°35' E 010°19'0 0.9
2017-Sep-19 07:31N 43°35' E 010°19'1 2.0
2017-Sep-19 07:01N 43°34' E 010°19'1 2.7
2017-Sep-19 06:31N 43°33' E 010°17'1 1.4
2017-Sep-19 06:00N 43°34' E 010°18'0 0.0
2017-Sep-19 05:30N 43°34' E 010°18'0 0.0
2017-Sep-19 05:00N 43°34' E 010°18'0 0.0
2017-Sep-19 04:30N 43°34' E 010°18'0 0.0
2017-Sep-19 04:00N 43°34' E 010°18'0 0.0
2017-Sep-18 15:54N 43°34' E 010°18'0 0.0
2017-Sep-18 15:30N 43°34' E 010°18'0 0.0
2017-Sep-18 15:00N 43°34' E 010°18'0 0.0
2017-Sep-18 14:30N 43°34' E 010°18'0 0.0
2017-Sep-18 14:00N 43°34' E 010°18'0 0.0
2017-Sep-18 13:30N 43°34' E 010°18'0 0.0
2017-Sep-18 13:00N 43°34' E 010°18'0 0.0
2017-Sep-18 12:30N 43°34' E 010°18'0 0.0
2017-Sep-18 12:00N 43°34' E 010°18'0 0.0
2017-Sep-18 11:31N 43°34' E 010°18'1 2.8
2017-Sep-18 11:01N 43°35' E 010°19'1 2.7
2017-Sep-18 10:30N 43°34' E 010°18'0 0.0
2017-Sep-18 10:00N 43°34' E 010°18'0 0.0
2017-Sep-18 09:30N 43°34' E 010°18'0 0.0
2017-Sep-18 09:00N 43°34' E 010°18'0 0.0
2017-Sep-18 08:30N 43°34' E 010°18'0 0.0
2017-Sep-18 08:00N 43°34' E 010°18'0 0.0
2017-Sep-18 07:30N 43°34' E 010°18'0 0.0
2017-Sep-18 07:00N 43°34' E 010°18'0 0.0
2017-Sep-18 06:30N 43°34' E 010°18'1 1.6
2017-Sep-18 06:00N 43°34' E 010°19'1 1.2
2017-Sep-18 05:30N 43°34' E 010°18'0 0.5
2017-Sep-18 05:00N 43°34' E 010°18'0 0.0
2017-Sep-18 04:30N 43°34' E 010°18'  
2017-Sep-15 18:57N 43°34' E 010°18'0 0.0
2017-Sep-15 18:30N 43°34' E 010°18'0 0.0
2017-Sep-15 18:00N 43°34' E 010°18'0 0.0
2017-Sep-15 17:30N 43°34' E 010°18'0 0.0
2017-Sep-15 17:00N 43°34' E 010°18'0 0.5
2017-Sep-15 16:30N 43°34' E 010°18'0 0.7
2017-Sep-15 16:00N 43°34' E 010°18'2 5.0
2017-Sep-15 15:30N 43°32' E 010°17'0 0.1
2017-Sep-15 15:01N 43°32' E 010°16'2 4.0
2017-Sep-15 14:30N 43°34' E 010°18'0 0.0
2017-Sep-15 14:00N 43°34' E 010°18'0 0.9
2017-Sep-15 13:30N 43°33' E 010°18'1 2.3
2017-Sep-15 13:00N 43°34' E 010°18'1 1.6
2017-Sep-15 12:30N 43°34' E 010°18'0 0.0
2017-Sep-15 12:00N 43°34' E 010°18'0 0.0
2017-Sep-15 11:30N 43°34' E 010°18'0 0.0
2017-Sep-15 11:00N 43°34' E 010°18'0 0.0
2017-Sep-15 09:58N 43°34' E 010°18'0 0.0
2017-Sep-15 09:30N 43°34' E 010°18'0 0.0
2017-Sep-15 09:00N 43°34' E 010°18'0 0.1
2017-Sep-15 08:30N 43°34' E 010°18'1 2.2
2017-Sep-15 08:01N 43°33' E 010°17'1 1.4
2017-Sep-15 07:31N 43°33' E 010°18'0 0.3
2017-Sep-15 07:00N 43°34' E 010°18'0 0.0
2017-Sep-15 06:30N 43°34' E 010°18'0 0.8
2017-Sep-15 06:00N 43°34' E 010°18'0 0.0
2017-Sep-15 05:30N 43°34' E 010°18'0 0.0
2017-Sep-15 05:00N 43°34' E 010°18'0 0.0
2017-Sep-15 04:30N 43°34' E 010°18'0 0.0
2017-Sep-15 04:01N 43°34' E 010°18'0 0.0
2017-Sep-14 15:29N 43°34' E 010°18'0 0.0
2017-Sep-14 14:58N 43°34' E 010°18'0 0.0
2017-Sep-14 14:31N 43°34' E 010°18'0 0.0
2017-Sep-14 14:01N 43°34' E 010°18'0 0.0
2017-Sep-14 13:30N 43°34' E 010°18'0 0.0
2017-Sep-14 11:04N 43°34' E 010°18'0 0.1
2017-Sep-14 11:01N 43°34' E 010°18'0 0.0
2017-Sep-14 10:31N 43°34' E 010°18'0 0.0
2017-Sep-14 10:00N 43°34' E 010°18'0 0.0
2017-Sep-14 09:31N 43°34' E 010°18'0 0.0
2017-Sep-14 09:01N 43°34' E 010°18'0 0.0
2017-Sep-14 08:31N 43°34' E 010°18'0 0.0
2017-Sep-14 08:01N 43°34' E 010°18'0 0.0
2017-Sep-14 07:31N 43°34' E 010°18'0 0.0
2017-Sep-14 07:01N 43°34' E 010°18'0 0.0
2017-Sep-14 06:31N 43°34' E 010°18'0 0.0
2017-Sep-14 06:01N 43°34' E 010°18'0 0.0
2017-Sep-14 05:30N 43°34' E 010°18'0 0.0
2017-Sep-13 13:46N 43°34' E 010°18'0 0.0
2017-Sep-13 13:30N 43°34' E 010°18'0 0.0
2017-Sep-13 13:00N 43°34' E 010°18'0 0.0
2017-Sep-13 12:30N 43°34' E 010°18'0 0.0
2017-Sep-13 12:00N 43°34' E 010°18'0 0.0
2017-Sep-13 11:30N 43°34' E 010°18'0 0.0
2017-Sep-13 10:56N 43°34' E 010°18'0 0.0
2017-Sep-13 10:30N 43°34' E 010°18'0 0.0
2017-Sep-13 10:00N 43°34' E 010°18'0 0.0
2017-Sep-13 09:30N 43°34' E 010°18'1 2.2
2017-Sep-13 09:00N 43°35' E 010°18'1 1.9
2017-Sep-13 08:30N 43°34' E 010°18'1 1.5
2017-Sep-13 08:00N 43°33' E 010°17'1 1.3
2017-Sep-13 07:30N 43°34' E 010°18'0 0.0
2017-Sep-13 07:00N 43°34' E 010°18'0 0.5
2017-Sep-13 06:30N 43°34' E 010°18'1 1.2
2017-Sep-13 06:00N 43°34' E 010°18'1 1.7
2017-Sep-13 05:30N 43°34' E 010°18'0 0.0
2017-Sep-12 15:51N 43°34' E 010°18'1 2.3
2017-Sep-12 15:30N 43°34' E 010°19'2 3.7
2017-Sep-12 15:00N 43°33' E 010°17'1 2.1
2017-Sep-12 14:30N 43°34' E 010°18'0 0.0
2017-Sep-12 14:00N 43°34' E 010°18'0 0.0
2017-Sep-12 13:30N 43°34' E 010°18'0 0.0
2017-Sep-12 13:00N 43°34' E 010°18'0 0.0
2017-Sep-12 12:30N 43°34' E 010°18'0 0.0
2017-Sep-12 12:00N 43°34' E 010°18'0 0.0
2017-Sep-12 11:30N 43°34' E 010°18'1 1.5
2017-Sep-12 11:00N 43°34' E 010°19'1 1.0
2017-Sep-12 10:30N 43°35' E 010°19'1 2.5
2017-Sep-12 10:00N 43°34' E 010°18'0 0.0
2017-Sep-12 09:30N 43°34' E 010°18'0 0.7
2017-Sep-12 09:00N 43°34' E 010°18'1 2.8
2017-Sep-12 08:30N 43°35' E 010°18'0 0.0
2017-Sep-12 08:00N 43°35' E 010°18'0 0.0
2017-Sep-12 07:30N 43°35' E 010°18'0 0.0
2017-Sep-12 07:00N 43°35' E 010°18'0 0.0
2017-Sep-12 06:30N 43°35' E 010°18'0 0.0
2017-Sep-12 06:00N 43°35' E 010°18'0 0.0
2017-Sep-12 05:30N 43°35' E 010°18'0 0.0
2017-Sep-12 05:00N 43°35' E 010°18'1 2.9
2017-Sep-12 04:31N 43°33' E 010°18'0 0.5
2017-Sep-12 03:39N 43°34' E 010°18'0 0.0
2017-Sep-12 03:30N 43°34' E 010°18'0 0.0
2017-Sep-12 03:00N 43°34' E 010°18'0 0.0
2017-Sep-12 02:30N 43°34' E 010°18'0 0.0
2017-Sep-12 02:00N 43°34' E 010°18'0 0.0
2017-Sep-12 01:30N 43°34' E 010°18'0 0.0
2017-Sep-12 01:00N 43°34' E 010°18'0 0.0
2017-Sep-12 00:30N 43°34' E 010°18'0 0.0
2017-Sep-12 00:00N 43°34' E 010°18'0 0.0
2017-Sep-11 23:30N 43°34' E 010°18'0 0.0
2017-Sep-11 23:00N 43°34' E 010°18'0 0.0
2017-Sep-11 22:30N 43°34' E 010°18'0 0.0
2017-Sep-11 22:00N 43°34' E 010°18'0 0.0
2017-Sep-11 21:30N 43°34' E 010°18'0 0.0
2017-Sep-11 21:00N 43°34' E 010°18'0 0.0
2017-Sep-11 20:30N 43°34' E 010°18'0 0.0
2017-Sep-11 20:00N 43°34' E 010°18'0 0.0
2017-Sep-11 19:30N 43°34' E 010°18'0 0.0
2017-Sep-11 18:45N 43°34' E 010°18'0 0.0
2017-Sep-11 18:31N 43°34' E 010°18'0 0.0
2017-Sep-11 18:00N 43°34' E 010°18'0 0.0
2017-Sep-11 17:31N 43°34' E 010°18'1 1.6
2017-Sep-11 17:00N 43°33' E 010°17'0 0.8
2017-Sep-11 16:31N 43°33' E 010°18'  

Dump ship's entire track history